BGH7702 LTAZ-LBSF
Flight info
| Callsign | BGH7702 |
|---|---|
| Flight time | 1h 32m |
| Altitude | 36000 |
| Route | AZBUL UW75 BAG UL605 YAVRU UL615 VADEN T227 DEDIN |
| Aircraft | A320/M-SDE3FGHIRWY/LB1 |
Departure
| Time | 2026-04-30 20:08 |
|---|---|
| Airport | Nevşehir Kapadokya Airport (LTAZ) |
Arrival
| Time | 2026-04-30 21:41 |
|---|---|
| Airport | Sofia Airport (LBSF) |
| Time | Latitude | Longitude | Altitude | Speed | Heading |
|---|---|---|---|---|---|
| 2026-04-30 19:52 | 38.77260 | 34.52457 | 3091 ft | 0 kts | 207° |
| 2026-04-30 19:59 | 38.77264 | 34.52460 | 3091 ft | 2 kts | 207° |
| 2026-04-30 19:59 | 38.77285 | 34.52487 | 3091 ft | 2 kts | 243° |
| 2026-04-30 20:00 | 38.77291 | 34.52505 | 3091 ft | 2 kts | 258° |
| 2026-04-30 20:00 | 38.77292 | 34.52524 | 3091 ft | 2 kts | 274° |
| 2026-04-30 20:00 | 38.77289 | 34.52542 | 3091 ft | 2 kts | 289° |
| 2026-04-30 20:00 | 38.77286 | 34.52552 | 3092 ft | 1 kts | 299° |
| 2026-04-30 20:01 | 38.77284 | 34.52556 | 3092 ft | 0 kts | 297° |
| 2026-04-30 20:03 | 38.77290 | 34.52542 | 3091 ft | 2 kts | 298° |
| 2026-04-30 20:03 | 38.77306 | 34.52515 | 3091 ft | 4 kts | 324° |
| 2026-04-30 20:04 | 38.77343 | 34.52513 | 3091 ft | 6 kts | 17° |
| 2026-04-30 20:04 | 38.77388 | 34.52541 | 3091 ft | 7 kts | 26° |
| 2026-04-30 20:04 | 38.77443 | 34.52575 | 3091 ft | 9 kts | 27° |
| 2026-04-30 20:05 | 38.77559 | 34.52527 | 3089 ft | 12 kts | 298° |
| 2026-04-30 20:05 | 38.77603 | 34.52419 | 3086 ft | 15 kts | 297° |
| 2026-04-30 20:05 | 38.77714 | 34.52143 | 3078 ft | 19 kts | 297° |
| 2026-04-30 20:06 | 38.77748 | 34.51978 | 3074 ft | 15 kts | 275° |
| 2026-04-30 20:06 | 38.77786 | 34.51971 | 3073 ft | 10 kts | 112° |
| 2026-04-30 20:06 | 38.77770 | 34.52010 | 3074 ft | 0 kts | 116° |
| 2026-04-30 20:07 | 38.77763 | 34.52026 | 3075 ft | 16 kts | 117° |
| 2026-04-30 20:08 | 38.77593 | 34.52445 | 3087 ft | 86 kts | 117° |
| 2026-04-30 20:08 | 38.77225 | 34.53358 | 3098 ft | 144 kts | 117° |
| 2026-04-30 20:08 | 38.76685 | 34.54667 | 3222 ft | 179 kts | 119° |
| 2026-04-30 20:08 | 38.76138 | 34.56091 | 3819 ft | 179 kts | 114° |
| 2026-04-30 20:09 | 38.75662 | 34.57559 | 4405 ft | 182 kts | 113° |
| 2026-04-30 20:09 | 38.75178 | 34.59035 | 5018 ft | 185 kts | 114° |
| 2026-04-30 20:09 | 38.73565 | 34.61743 | 5699 ft | 212 kts | 163° |
| 2026-04-30 20:10 | 38.70954 | 34.60265 | 5922 ft | 232 kts | 247° |
| 2026-04-30 20:10 | 38.70856 | 34.58212 | 6455 ft | 240 kts | 288° |
| 2026-04-30 20:10 | 38.71815 | 34.56529 | 7331 ft | 239 kts | 325° |
| 2026-04-30 20:11 | 38.74937 | 34.54950 | 8697 ft | 251 kts | 337° |
| 2026-04-30 20:11 | 38.76516 | 34.53965 | 9311 ft | 258 kts | 320° |
| 2026-04-30 20:11 | 38.77746 | 34.52276 | 9777 ft | 270 kts | 303° |
| 2026-04-30 20:12 | 38.79974 | 34.48018 | 10647 ft | 305 kts | 301° |
| 2026-04-30 20:12 | 38.81181 | 34.45683 | 11040 ft | 323 kts | 301° |
| 2026-04-30 20:12 | 38.82425 | 34.43225 | 11394 ft | 341 kts | 300° |
| 2026-04-30 20:13 | 38.83733 | 34.40594 | 11935 ft | 351 kts | 300° |
| 2026-04-30 20:13 | 38.85033 | 34.37980 | 12682 ft | 354 kts | 300° |
| 2026-04-30 20:13 | 38.86356 | 34.35330 | 13447 ft | 357 kts | 300° |
| 2026-04-30 20:13 | 38.87707 | 34.32628 | 14177 ft | 360 kts | 300° |
| 2026-04-30 20:14 | 38.89048 | 34.29942 | 14878 ft | 363 kts | 300° |
| 2026-04-30 20:14 | 38.90408 | 34.27220 | 15578 ft | 365 kts | 300° |
| 2026-04-30 20:14 | 38.91782 | 34.24474 | 16269 ft | 368 kts | 300° |
| 2026-04-30 20:14 | 38.93166 | 34.21704 | 16941 ft | 371 kts | 300° |
| 2026-04-30 20:15 | 38.94568 | 34.18896 | 17597 ft | 374 kts | 300° |
| 2026-04-30 20:15 | 38.95953 | 34.16121 | 18256 ft | 375 kts | 300° |
| 2026-04-30 20:15 | 38.97359 | 34.13305 | 18919 ft | 377 kts | 300° |
| 2026-04-30 20:15 | 38.98781 | 34.10453 | 19545 ft | 379 kts | 300° |
| 2026-04-30 20:16 | 39.00202 | 34.07597 | 20151 ft | 382 kts | 300° |
| 2026-04-30 20:16 | 39.01636 | 34.04714 | 20754 ft | 384 kts | 299° |
| 2026-04-30 20:16 | 39.03068 | 34.01832 | 21331 ft | 387 kts | 299° |
| 2026-04-30 20:16 | 39.04514 | 33.98919 | 21890 ft | 390 kts | 299° |
| 2026-04-30 20:17 | 39.05970 | 33.95982 | 22439 ft | 392 kts | 299° |
| 2026-04-30 20:17 | 39.07445 | 33.93003 | 22981 ft | 395 kts | 299° |
| 2026-04-30 20:17 | 39.08915 | 33.90034 | 23500 ft | 398 kts | 299° |
| 2026-04-30 20:17 | 39.10402 | 33.87029 | 23999 ft | 401 kts | 299° |
| 2026-04-30 20:18 | 39.11915 | 33.83992 | 24480 ft | 403 kts | 299° |
| 2026-04-30 20:18 | 39.13441 | 33.80927 | 24947 ft | 406 kts | 299° |
| 2026-04-30 20:18 | 39.14957 | 33.77875 | 25391 ft | 409 kts | 299° |
| 2026-04-30 20:18 | 39.16478 | 33.74804 | 25838 ft | 411 kts | 299° |
| 2026-04-30 20:19 | 39.18025 | 33.71667 | 26252 ft | 413 kts | 299° |
| 2026-04-30 20:19 | 39.19568 | 33.68536 | 26662 ft | 416 kts | 299° |
| 2026-04-30 20:19 | 39.21122 | 33.65377 | 27065 ft | 418 kts | 299° |
| 2026-04-30 20:19 | 39.22661 | 33.62243 | 27439 ft | 420 kts | 299° |
| 2026-04-30 20:20 | 39.24234 | 33.59037 | 27813 ft | 422 kts | 300° |
| 2026-04-30 20:20 | 39.25805 | 33.55831 | 28173 ft | 424 kts | 300° |
| 2026-04-30 20:20 | 39.27367 | 33.52639 | 28519 ft | 426 kts | 300° |
| 2026-04-30 20:20 | 39.28949 | 33.49406 | 28888 ft | 427 kts | 300° |
| 2026-04-30 20:21 | 39.30540 | 33.46151 | 29368 ft | 426 kts | 300° |
| 2026-04-30 20:21 | 39.32092 | 33.42972 | 29868 ft | 423 kts | 300° |
| 2026-04-30 20:21 | 39.33653 | 33.39774 | 30339 ft | 422 kts | 300° |
| 2026-04-30 20:21 | 39.35214 | 33.36568 | 30771 ft | 420 kts | 300° |
| 2026-04-30 20:22 | 39.36771 | 33.33364 | 31185 ft | 419 kts | 299° |
| 2026-04-30 20:22 | 39.38301 | 33.30203 | 31610 ft | 418 kts | 299° |
| 2026-04-30 20:22 | 39.39841 | 33.27019 | 32030 ft | 417 kts | 299° |
| 2026-04-30 20:22 | 39.41361 | 33.23874 | 32432 ft | 415 kts | 299° |
| 2026-04-30 20:23 | 39.42892 | 33.20708 | 32810 ft | 414 kts | 299° |
| 2026-04-30 20:23 | 39.44398 | 33.17593 | 33166 ft | 413 kts | 299° |
| 2026-04-30 20:23 | 39.45929 | 33.14425 | 33523 ft | 412 kts | 299° |
| 2026-04-30 20:23 | 39.47425 | 33.11326 | 33877 ft | 410 kts | 299° |
| 2026-04-30 20:24 | 39.48941 | 33.08184 | 34208 ft | 409 kts | 299° |
| 2026-04-30 20:24 | 39.50424 | 33.05108 | 34495 ft | 409 kts | 299° |
| 2026-04-30 20:24 | 39.51927 | 33.01988 | 34720 ft | 409 kts | 299° |
| 2026-04-30 20:24 | 39.53446 | 32.98832 | 34905 ft | 410 kts | 299° |
| 2026-04-30 20:25 | 39.56469 | 32.92536 | 35249 ft | 413 kts | 299° |
| 2026-04-30 20:25 | 39.57981 | 32.89384 | 35419 ft | 413 kts | 299° |
| 2026-04-30 20:26 | 39.61008 | 32.83061 | 35737 ft | 415 kts | 299° |
| 2026-04-30 20:26 | 39.64029 | 32.76740 | 36002 ft | 417 kts | 299° |
| 2026-04-30 20:26 | 39.65551 | 32.73551 | 36010 ft | 417 kts | 299° |
| 2026-04-30 20:27 | 39.71646 | 32.60750 | 36022 ft | 418 kts | 299° |
| 2026-04-30 20:28 | 39.77720 | 32.47939 | 36016 ft | 417 kts | 299° |
| 2026-04-30 20:30 | 39.85293 | 32.31885 | 36004 ft | 416 kts | 298° |
| 2026-04-30 20:31 | 39.94309 | 32.12633 | 35999 ft | 416 kts | 298° |
| 2026-04-30 20:32 | 40.01820 | 31.96534 | 36003 ft | 416 kts | 298° |
| 2026-04-30 20:33 | 40.06314 | 31.86861 | 35998 ft | 416 kts | 298° |
| 2026-04-30 20:34 | 40.10780 | 31.77227 | 36006 ft | 415 kts | 298° |
| 2026-04-30 20:35 | 40.15288 | 31.67550 | 36013 ft | 416 kts | 298° |
| 2026-04-30 20:35 | 40.19758 | 31.57871 | 36024 ft | 415 kts | 298° |
| 2026-04-30 20:36 | 40.22715 | 31.51436 | 36024 ft | 415 kts | 298° |
| 2026-04-30 20:37 | 40.27150 | 31.41758 | 36028 ft | 414 kts | 298° |
| 2026-04-30 20:37 | 40.30098 | 31.35302 | 36022 ft | 414 kts | 298° |
| 2026-04-30 20:38 | 40.33032 | 31.28849 | 36017 ft | 412 kts | 297° |
| 2026-04-30 20:38 | 40.35950 | 31.22415 | 36015 ft | 412 kts | 297° |
| 2026-04-30 20:39 | 40.40335 | 31.12741 | 36018 ft | 412 kts | 297° |
| 2026-04-30 20:40 | 40.44719 | 31.03042 | 36020 ft | 412 kts | 297° |
| 2026-04-30 20:40 | 40.47633 | 30.96584 | 36024 ft | 412 kts | 297° |
| 2026-04-30 20:41 | 40.51979 | 30.86923 | 36028 ft | 412 kts | 297° |
| 2026-04-30 20:41 | 40.54883 | 30.80450 | 36029 ft | 411 kts | 297° |
| 2026-04-30 20:42 | 40.57773 | 30.73997 | 36025 ft | 410 kts | 297° |
| 2026-04-30 20:43 | 40.62091 | 30.64336 | 36021 ft | 409 kts | 297° |
| 2026-04-30 20:43 | 40.64959 | 30.57893 | 36022 ft | 409 kts | 297° |
| 2026-04-30 20:44 | 40.69253 | 30.48226 | 36022 ft | 408 kts | 297° |
| 2026-04-30 20:45 | 40.74926 | 30.35409 | 36036 ft | 406 kts | 297° |
| 2026-04-30 20:45 | 40.77760 | 30.28966 | 36033 ft | 406 kts | 296° |
| 2026-04-30 20:46 | 40.83395 | 30.16130 | 36053 ft | 405 kts | 296° |
| 2026-04-30 20:47 | 40.87618 | 30.06487 | 36056 ft | 405 kts | 296° |
| 2026-04-30 20:48 | 40.91829 | 29.96847 | 36051 ft | 405 kts | 296° |
| 2026-04-30 20:48 | 40.94637 | 29.90399 | 36049 ft | 405 kts | 296° |
| 2026-04-30 20:49 | 40.97440 | 29.83957 | 36050 ft | 405 kts | 296° |
| 2026-04-30 20:50 | 41.01616 | 29.74324 | 36050 ft | 404 kts | 295° |
| 2026-04-30 20:50 | 41.04408 | 29.67866 | 36046 ft | 404 kts | 295° |
| 2026-04-30 20:51 | 41.07182 | 29.61437 | 36050 ft | 404 kts | 295° |
| 2026-04-30 20:51 | 41.11365 | 29.51735 | 36059 ft | 404 kts | 296° |
| 2026-04-30 20:52 | 41.14156 | 29.45299 | 36066 ft | 404 kts | 296° |
| 2026-04-30 20:53 | 41.18317 | 29.35622 | 36063 ft | 404 kts | 295° |
| 2026-04-30 20:53 | 41.21074 | 29.29151 | 36072 ft | 404 kts | 295° |
| 2026-04-30 20:54 | 41.25205 | 29.19430 | 36076 ft | 404 kts | 295° |
| 2026-04-30 20:55 | 41.29340 | 29.09687 | 36088 ft | 404 kts | 295° |
| 2026-04-30 20:55 | 41.32075 | 29.03223 | 36080 ft | 404 kts | 295° |
| 2026-04-30 20:56 | 41.36192 | 28.93470 | 36093 ft | 404 kts | 295° |
| 2026-04-30 20:57 | 41.40281 | 28.83744 | 36093 ft | 403 kts | 295° |
| 2026-04-30 20:57 | 41.43026 | 28.77203 | 36091 ft | 404 kts | 295° |
| 2026-04-30 20:58 | 41.47104 | 28.67454 | 36094 ft | 403 kts | 295° |
| 2026-04-30 20:58 | 41.49830 | 28.60923 | 36102 ft | 403 kts | 295° |
| 2026-04-30 20:59 | 41.53891 | 28.51167 | 36106 ft | 403 kts | 295° |
| 2026-04-30 21:00 | 41.59316 | 28.38080 | 36114 ft | 403 kts | 294° |
| 2026-04-30 21:01 | 41.63357 | 28.28271 | 36125 ft | 403 kts | 294° |
| 2026-04-30 21:02 | 41.67393 | 28.18447 | 36116 ft | 403 kts | 294° |
| 2026-04-30 21:02 | 41.70100 | 28.11850 | 36126 ft | 403 kts | 294° |
| 2026-04-30 21:03 | 41.72772 | 28.05319 | 36115 ft | 403 kts | 294° |
| 2026-04-30 21:03 | 41.75459 | 27.98744 | 36134 ft | 403 kts | 294° |
| 2026-04-30 21:04 | 41.78149 | 27.92145 | 36110 ft | 403 kts | 294° |
| 2026-04-30 21:04 | 41.82156 | 27.82291 | 36104 ft | 404 kts | 294° |
| 2026-04-30 21:05 | 41.84836 | 27.75681 | 36105 ft | 404 kts | 294° |
| 2026-04-30 21:05 | 41.87490 | 27.69122 | 36107 ft | 404 kts | 293° |
| 2026-04-30 21:06 | 41.90171 | 27.62472 | 36127 ft | 404 kts | 294° |
| 2026-04-30 21:06 | 41.92836 | 27.55854 | 36120 ft | 405 kts | 294° |
| 2026-04-30 21:07 | 41.95499 | 27.49229 | 36129 ft | 405 kts | 294° |
| 2026-04-30 21:07 | 41.98175 | 27.42555 | 36136 ft | 405 kts | 294° |
| 2026-04-30 21:08 | 42.00829 | 27.35931 | 36129 ft | 406 kts | 294° |
| 2026-04-30 21:08 | 42.03490 | 27.29225 | 36131 ft | 406 kts | 292° |
| 2026-04-30 21:09 | 42.05801 | 27.22341 | 36140 ft | 406 kts | 288° |
| 2026-04-30 21:09 | 42.07608 | 27.15161 | 36145 ft | 404 kts | 283° |
| 2026-04-30 21:10 | 42.08312 | 27.11551 | 36438 ft | 404 kts | 281° |
| 2026-04-30 21:10 | 42.08991 | 27.07883 | 36135 ft | 403 kts | 281° |
| 2026-04-30 21:10 | 42.10333 | 27.00541 | 36338 ft | 404 kts | 281° |
| 2026-04-30 21:11 | 42.11686 | 26.93263 | 36225 ft | 400 kts | 281° |
| 2026-04-30 21:11 | 42.13010 | 26.86030 | 36190 ft | 399 kts | 281° |
| 2026-04-30 21:12 | 42.14320 | 26.78802 | 36183 ft | 399 kts | 281° |
| 2026-04-30 21:12 | 42.15618 | 26.71582 | 36184 ft | 398 kts | 281° |
| 2026-04-30 21:13 | 42.16909 | 26.64344 | 36185 ft | 399 kts | 281° |
| 2026-04-30 21:13 | 42.18199 | 26.57098 | 36202 ft | 399 kts | 281° |
| 2026-04-30 21:14 | 42.19492 | 26.49810 | 36217 ft | 399 kts | 281° |
| 2026-04-30 21:14 | 42.20779 | 26.42510 | 36220 ft | 399 kts | 281° |
| 2026-04-30 21:15 | 42.22054 | 26.35245 | 36213 ft | 399 kts | 281° |
| 2026-04-30 21:15 | 42.23314 | 26.28019 | 36210 ft | 398 kts | 281° |
| 2026-04-30 21:16 | 42.24574 | 26.20773 | 36210 ft | 398 kts | 281° |
| 2026-04-30 21:16 | 42.25839 | 26.13489 | 36208 ft | 399 kts | 281° |
| 2026-04-30 21:17 | 42.27098 | 26.06202 | 36210 ft | 399 kts | 281° |
| 2026-04-30 21:17 | 42.28353 | 25.98921 | 36228 ft | 399 kts | 281° |
| 2026-04-30 21:18 | 42.29599 | 25.91652 | 36141 ft | 394 kts | 281° |
| 2026-04-30 21:18 | 42.30210 | 25.88092 | 35753 ft | 392 kts | 281° |
| 2026-04-30 21:18 | 42.30822 | 25.84514 | 35149 ft | 393 kts | 280° |
| 2026-04-30 21:19 | 42.31431 | 25.80946 | 34540 ft | 393 kts | 280° |
| 2026-04-30 21:19 | 42.32037 | 25.77391 | 34070 ft | 386 kts | 279° |
| 2026-04-30 21:19 | 42.32661 | 25.73915 | 33834 ft | 381 kts | 280° |
| 2026-04-30 21:19 | 42.33310 | 25.70460 | 33494 ft | 382 kts | 281° |
| 2026-04-30 21:20 | 42.33968 | 25.66959 | 32950 ft | 383 kts | 281° |
| 2026-04-30 21:20 | 42.34629 | 25.63446 | 32264 ft | 384 kts | 280° |
| 2026-04-30 21:20 | 42.35279 | 25.59975 | 31483 ft | 387 kts | 280° |
| 2026-04-30 21:20 | 42.35933 | 25.56462 | 30872 ft | 384 kts | 279° |
| 2026-04-30 21:21 | 42.36580 | 25.52971 | 30306 ft | 381 kts | 279° |
| 2026-04-30 21:21 | 42.37216 | 25.49524 | 29773 ft | 377 kts | 279° |
| 2026-04-30 21:21 | 42.38458 | 25.42741 | 28680 ft | 371 kts | 279° |
| 2026-04-30 21:22 | 42.39075 | 25.39366 | 28175 ft | 367 kts | 279° |
| 2026-04-30 21:22 | 42.40877 | 25.29463 | 26620 ft | 360 kts | 279° |
| 2026-04-30 21:23 | 42.41475 | 25.26159 | 26092 ft | 359 kts | 279° |
| 2026-04-30 21:23 | 42.42062 | 25.22913 | 25601 ft | 356 kts | 279° |
| 2026-04-30 21:23 | 42.43238 | 25.16412 | 24638 ft | 352 kts | 279° |
| 2026-04-30 21:24 | 42.43810 | 25.13235 | 24161 ft | 351 kts | 279° |
| 2026-04-30 21:24 | 42.44392 | 25.10011 | 23674 ft | 349 kts | 279° |
| 2026-04-30 21:24 | 42.44964 | 25.06821 | 23185 ft | 349 kts | 279° |
| 2026-04-30 21:24 | 42.45540 | 25.03603 | 22685 ft | 348 kts | 280° |
| 2026-04-30 21:25 | 42.46672 | 24.97250 | 21667 ft | 347 kts | 281° |
| 2026-04-30 21:25 | 42.47234 | 24.94101 | 21199 ft | 346 kts | 281° |
| 2026-04-30 21:25 | 42.47799 | 24.90936 | 20672 ft | 346 kts | 281° |
| 2026-04-30 21:26 | 42.48917 | 24.84661 | 19681 ft | 343 kts | 282° |
| 2026-04-30 21:26 | 42.49473 | 24.81520 | 19185 ft | 342 kts | 282° |
| 2026-04-30 21:27 | 42.50569 | 24.75325 | 18154 ft | 341 kts | 283° |
| 2026-04-30 21:27 | 42.51115 | 24.72232 | 17656 ft | 340 kts | 283° |
| 2026-04-30 21:27 | 42.51666 | 24.69108 | 17113 ft | 340 kts | 283° |
| 2026-04-30 21:28 | 42.52759 | 24.62894 | 16039 ft | 340 kts | 284° |
| 2026-04-30 21:28 | 42.53306 | 24.59775 | 15541 ft | 339 kts | 284° |
| 2026-04-30 21:28 | 42.54389 | 24.53579 | 14466 ft | 338 kts | 285° |
| 2026-04-30 21:29 | 42.54927 | 24.50498 | 13974 ft | 337 kts | 285° |
| 2026-04-30 21:29 | 42.56526 | 24.41311 | 12442 ft | 336 kts | 286° |
| 2026-04-30 21:30 | 42.57585 | 24.35195 | 11537 ft | 333 kts | 287° |
| 2026-04-30 21:31 | 42.59155 | 24.26042 | 10211 ft | 325 kts | 287° |
| 2026-04-30 21:31 | 42.60126 | 24.20351 | 9997 ft | 298 kts | 287° |
| 2026-04-30 21:32 | 42.61032 | 24.15063 | 9656 ft | 280 kts | 287° |
| 2026-04-30 21:32 | 42.61472 | 24.12503 | 9345 ft | 277 kts | 287° |
| 2026-04-30 21:32 | 42.61907 | 24.09966 | 9037 ft | 275 kts | 287° |
| 2026-04-30 21:32 | 42.62336 | 24.07460 | 8727 ft | 273 kts | 288° |
| 2026-04-30 21:33 | 42.62762 | 24.04959 | 8416 ft | 271 kts | 287° |
| 2026-04-30 21:33 | 42.63596 | 24.00047 | 7810 ft | 267 kts | 288° |
| 2026-04-30 21:33 | 42.64014 | 23.97579 | 7515 ft | 265 kts | 288° |
| 2026-04-30 21:34 | 42.64422 | 23.95173 | 7225 ft | 264 kts | 288° |
| 2026-04-30 21:34 | 42.65235 | 23.90352 | 6646 ft | 261 kts | 288° |
| 2026-04-30 21:34 | 42.65640 | 23.87946 | 6351 ft | 260 kts | 288° |
| 2026-04-30 21:35 | 42.66047 | 23.85542 | 6063 ft | 259 kts | 288° |
| 2026-04-30 21:35 | 42.66460 | 23.83163 | 5912 ft | 258 kts | 291° |
| 2026-04-30 21:35 | 42.66974 | 23.80879 | 5913 ft | 244 kts | 290° |
| 2026-04-30 21:35 | 42.67305 | 23.78695 | 5916 ft | 240 kts | 284° |
| 2026-04-30 21:36 | 42.67549 | 23.76414 | 5925 ft | 246 kts | 282° |
| 2026-04-30 21:36 | 42.67739 | 23.74097 | 5925 ft | 247 kts | 279° |
| 2026-04-30 21:37 | 42.68153 | 23.67122 | 5134 ft | 239 kts | 278° |
| 2026-04-30 21:37 | 42.68274 | 23.64933 | 4812 ft | 231 kts | 278° |
| 2026-04-30 21:37 | 42.68397 | 23.62774 | 4493 ft | 223 kts | 278° |
| 2026-04-30 21:37 | 42.68515 | 23.60735 | 4210 ft | 216 kts | 278° |
| 2026-04-30 21:38 | 42.68633 | 23.58728 | 3919 ft | 210 kts | 277° |
| 2026-04-30 21:38 | 42.68746 | 23.56800 | 3630 ft | 200 kts | 277° |
| 2026-04-30 21:38 | 42.68854 | 23.54961 | 3389 ft | 192 kts | 277° |
| 2026-04-30 21:38 | 42.68958 | 23.53198 | 3164 ft | 181 kts | 277° |
| 2026-04-30 21:39 | 42.69054 | 23.51565 | 2920 ft | 168 kts | 277° |
| 2026-04-30 21:39 | 42.69144 | 23.50041 | 2662 ft | 156 kts | 278° |
| 2026-04-30 21:39 | 42.69226 | 23.48649 | 2434 ft | 142 kts | 278° |
| 2026-04-30 21:39 | 42.69303 | 23.47356 | 2257 ft | 136 kts | 278° |
| 2026-04-30 21:40 | 42.69380 | 23.46069 | 2084 ft | 135 kts | 278° |
| 2026-04-30 21:40 | 42.69456 | 23.44798 | 1902 ft | 135 kts | 279° |
| 2026-04-30 21:40 | 42.69538 | 23.43545 | 1753 ft | 131 kts | 280° |
| 2026-04-30 21:40 | 42.69604 | 23.42467 | 1742 ft | 89 kts | 277° |
| 2026-04-30 21:41 | 42.69635 | 23.41898 | 1742 ft | 43 kts | 272° |
| 2026-04-30 21:41 | 42.69582 | 23.41562 | 1742 ft | 33 kts | 247° |
| 2026-04-30 21:41 | 42.69492 | 23.41304 | 1742 ft | 25 kts | 248° |
| 2026-04-30 21:41 | 42.69361 | 23.41185 | 1742 ft | 22 kts | 200° |
| 2026-04-30 21:42 | 42.69236 | 23.41152 | 1741 ft | 18 kts | 187° |
| 2026-04-30 21:42 | 42.69156 | 23.41169 | 1741 ft | 6 kts | 163° |
| 2026-04-30 21:42 | 42.69128 | 23.41201 | 1741 ft | 2 kts | 80° |
| 2026-04-30 21:42 | 42.69139 | 23.41232 | 1741 ft | 4 kts | 67° |
| 2026-04-30 21:43 | 42.69147 | 23.41262 | 1741 ft | 1 kts | 71° |
| 2026-04-30 21:43 | 42.69148 | 23.41267 | 1741 ft | 0 kts | 71° |